Dallas Love Field Dallas US
ICAO: KDAL
IATA: DAL
Category: Large
Scheduled Services: Yes

Elevation: 487 ft
TransAlt. 18000 ft.

Airport Communications:
RGNL APP:124.3
ATIS:120.15
CLNC DEL:127.9
RGNL DEP:118.55
GND:121.75
FORT WORTH RDO:122.3
LOVE TWR:118.7
UNICOM:122.95

KDAL Zoom In..

If you have problems with the map follow the link
https://www.worldairports.se/pages/airport.php?
ICAO=KDAL

Runways:

(A) RW 13L length 7752 ft width 150 ft
ILS 111.50 / hdg 130

(B) RW 13R length 8800 ft width 150 ft
ILS 111.10 / hdg 130

(C) RW 18 length 6147 ft width 151 ft
---- / hdg 180

(D) RW 31L length 8800 ft width 150 ft
ILS 111.10 / hdg 310

(E) RW 31R length 7752 ft width 150 ft
ILS 111.50 / hdg 310

(F) RW 36 length 6147 ft width 151 ft
---- / hdg 360

Location; KDAL
Day. 18 / Time. 07.53 Zulu
* Altimeter: 30.38
* Temperature: 13° c. 55.4°f.
* Wind from: 350° Speed 03 kn.
Dewpoint: 12° c.
Visibility: 10 Statute Miles.
Clouds: Overcast 4700 ft.

KDAL 180753Z 35003KT 10SM OVC047 13/12 A3038 RMK AO2 SLP284 T01330117 $


Wind From 350°
Speed 03 kn.

 
 
jpsmedia.com for Web Design worldairports.se 2018   terms of use